createdAt,value
2018-09-06T00:00:31.220Z,21.88
2018-09-06T00:01:31.284Z,21.88
2018-09-06T00:02:31.576Z,21.88
2018-09-06T00:03:31.321Z,21.88
2018-09-06T00:04:31.930Z,21.89
2018-09-06T00:05:31.335Z,21.88
2018-09-06T00:06:31.500Z,21.88
2018-09-06T00:07:31.243Z,21.87
2018-09-06T00:08:31.472Z,21.85
2018-09-06T00:09:31.305Z,21.87
2018-09-06T00:10:31.444Z,21.85
2018-09-06T00:11:31.295Z,21.87
2018-09-06T00:12:31.343Z,21.85
2018-09-06T00:13:31.610Z,21.87
2018-09-06T00:14:31.566Z,21.85
2018-09-06T00:15:31.322Z,21.85
2018-09-06T00:16:31.562Z,21.85
2018-09-06T00:17:31.237Z,21.87
2018-09-06T00:18:31.552Z,21.85
2018-09-06T00:19:31.334Z,21.87
2018-09-06T00:20:31.637Z,21.88
2018-09-06T00:21:31.179Z,21.85
2018-09-06T00:22:31.448Z,21.88
2018-09-06T00:23:31.275Z,21.88
2018-09-06T00:24:31.355Z,21.85
2018-09-06T00:25:31.256Z,21.87
2018-09-06T00:26:31.408Z,21.87
2018-09-06T00:27:31.234Z,21.87
2018-09-06T00:28:31.509Z,21.85
2018-09-06T00:29:31.193Z,21.87
2018-09-06T00:30:31.480Z,21.87
2018-09-06T00:31:31.433Z,21.88
2018-09-06T00:32:31.515Z,21.88
2018-09-06T00:33:31.235Z,21.87
2018-09-06T00:34:31.372Z,21.88
2018-09-06T00:35:31.384Z,21.89
2018-09-06T00:36:31.545Z,21.87
2018-09-06T00:37:31.360Z,21.85
2018-09-06T00:38:31.531Z,21.87
2018-09-06T00:39:31.385Z,21.85
2018-09-06T00:40:31.385Z,21.85
2018-09-06T00:41:31.324Z,21.87
2018-09-06T00:42:31.308Z,21.82
2018-09-06T00:43:31.233Z,21.84
2018-09-06T00:44:31.737Z,21.87
2018-09-06T00:45:31.242Z,21.85
2018-09-06T00:46:31.444Z,21.87
2018-09-06T00:47:31.269Z,21.85
2018-09-06T00:48:31.490Z,21.87
2018-09-06T00:49:31.249Z,21.87
2018-09-06T00:50:31.557Z,21.84
2018-09-06T00:51:31.371Z,21.85
2018-09-06T00:52:31.354Z,21.85
2018-09-06T00:53:31.347Z,21.85
2018-09-06T00:54:31.529Z,21.85
2018-09-06T00:55:31.268Z,21.85
2018-09-06T00:56:31.340Z,21.82
2018-09-06T00:57:31.181Z,21.82
2018-09-06T00:58:31.298Z,21.85
2018-09-06T00:59:31.301Z,21.87
2018-09-06T01:00:31.457Z,21.87
2018-09-06T01:01:31.283Z,21.85
2018-09-06T01:02:31.297Z,21.85
2018-09-06T01:03:31.548Z,21.84
2018-09-06T01:04:31.406Z,21.85
2018-09-06T01:05:31.337Z,21.85
2018-09-06T01:06:31.485Z,21.85
2018-09-06T01:07:31.254Z,21.85
2018-09-06T01:08:31.401Z,21.85
2018-09-06T01:09:31.205Z,21.85
2018-09-06T01:10:31.373Z,21.87
2018-09-06T01:11:31.234Z,21.85
2018-09-06T01:12:31.486Z,21.85
2018-09-06T01:13:31.560Z,21.87
2018-09-06T01:14:31.477Z,21.82
2018-09-06T01:15:31.374Z,21.85
2018-09-06T01:16:31.441Z,21.84
2018-09-06T01:17:31.310Z,21.85
2018-09-06T01:18:31.381Z,21.84
2018-09-06T01:19:31.329Z,21.85
2018-09-06T01:20:31.396Z,21.84
2018-09-06T01:21:31.234Z,21.85
2018-09-06T01:22:31.527Z,21.85
2018-09-06T01:23:31.350Z,21.82
2018-09-06T01:24:31.353Z,21.84
2018-09-06T01:25:31.388Z,21.85
2018-09-06T01:26:31.399Z,21.84
2018-09-06T01:27:31.205Z,21.81
2018-09-06T01:28:31.439Z,21.85
2018-09-06T01:29:31.197Z,21.84
2018-09-06T01:30:31.479Z,21.84
2018-09-06T01:31:31.308Z,21.85
2018-09-06T01:32:31.342Z,21.87
2018-09-06T01:33:31.465Z,21.82
2018-09-06T01:34:31.479Z,21.85
2018-09-06T01:35:31.285Z,21.85
2018-09-06T01:36:31.368Z,21.84
2018-09-06T01:37:31.282Z,21.85
2018-09-06T01:38:32.121Z,21.84
2018-09-06T01:39:31.310Z,21.82
2018-09-06T01:40:31.317Z,21.84
2018-09-06T01:41:31.323Z,21.87
2018-09-06T01:42:31.485Z,21.82
2018-09-06T01:43:31.242Z,21.84
2018-09-06T01:44:31.351Z,21.85
2018-09-06T01:45:31.466Z,21.85
2018-09-06T01:46:31.561Z,21.84
2018-09-06T01:47:31.202Z,21.84
2018-09-06T01:48:31.465Z,21.84
2018-09-06T01:49:31.212Z,21.84
2018-09-06T01:50:31.825Z,21.85
2018-09-06T01:51:31.602Z,21.84
2018-09-06T01:52:31.334Z,21.85
2018-09-06T01:53:31.340Z,21.81
2018-09-06T01:54:31.515Z,21.84
2018-09-06T01:55:31.307Z,21.84
2018-09-06T01:56:31.339Z,21.84
2018-09-06T01:57:31.580Z,21.82
2018-09-06T01:58:31.651Z,21.82
2018-09-06T01:59:31.375Z,21.84
2018-09-06T02:00:31.591Z,21.82
2018-09-06T02:01:31.205Z,21.81
2018-09-06T02:02:31.363Z,21.82
2018-09-06T02:03:31.276Z,21.82
2018-09-06T02:04:31.421Z,21.82
2018-09-06T02:05:31.265Z,21.82
2018-09-06T02:06:31.494Z,21.84
2018-09-06T02:07:31.332Z,21.82
2018-09-06T02:08:31.362Z,21.82
2018-09-06T02:09:31.748Z,21.84
2018-09-06T02:10:31.286Z,21.85
2018-09-06T02:11:31.259Z,21.84
2018-09-06T02:12:31.446Z,21.82
2018-09-06T02:13:31.272Z,21.82
2018-09-06T02:14:31.576Z,21.81
2018-09-06T02:15:31.285Z,21.81
2018-09-06T02:16:31.514Z,21.84
2018-09-06T02:17:31.300Z,21.81
2018-09-06T02:18:31.444Z,21.81
2018-09-06T02:19:31.354Z,21.82
2018-09-06T02:20:31.505Z,21.84
2018-09-06T02:21:31.313Z,21.82
2018-09-06T02:22:31.458Z,21.84
2018-09-06T02:23:31.250Z,21.82
2018-09-06T02:24:32.416Z,21.82
2018-09-06T02:25:31.268Z,21.81
2018-09-06T02:26:31.532Z,21.8
2018-09-06T02:27:31.290Z,21.81
2018-09-06T02:28:31.474Z,21.81
2018-09-06T02:29:31.284Z,21.81
2018-09-06T02:30:31.482Z,21.8
2018-09-06T02:31:31.484Z,21.82
2018-09-06T02:32:31.549Z,21.8
2018-09-06T02:33:31.373Z,21.8
2018-09-06T02:34:31.351Z,21.82
2018-09-06T02:35:31.457Z,21.84
2018-09-06T02:36:31.510Z,21.81
2018-09-06T02:37:31.383Z,21.81
2018-09-06T02:38:31.437Z,21.82
2018-09-06T02:39:31.237Z,21.81
2018-09-06T02:40:31.750Z,21.8
2018-09-06T02:41:31.354Z,21.82
2018-09-06T02:42:31.352Z,21.81
2018-09-06T02:43:31.290Z,21.82
2018-09-06T02:44:31.343Z,21.81
2018-09-06T02:45:31.226Z,21.82
2018-09-06T02:46:31.593Z,21.81
2018-09-06T02:47:31.194Z,21.81
2018-09-06T02:48:31.484Z,21.81
2018-09-06T02:49:31.210Z,21.81
2018-09-06T02:50:31.646Z,21.81
2018-09-06T02:51:31.384Z,21.81
2018-09-06T02:52:31.596Z,21.81
2018-09-06T02:53:31.331Z,21.78
2018-09-06T02:54:31.595Z,21.8
2018-09-06T02:55:31.365Z,21.8
2018-09-06T02:56:31.442Z,21.8
2018-09-06T02:57:31.668Z,21.81
2018-09-06T02:58:31.361Z,21.8
2018-09-06T02:59:31.298Z,21.82
2018-09-06T03:00:31.345Z,21.78
2018-09-06T03:01:31.160Z,21.81
2018-09-06T03:02:31.414Z,21.8
2018-09-06T03:03:31.175Z,21.81
2018-09-06T03:04:31.597Z,21.82
2018-09-06T03:05:31.335Z,21.8
2018-09-06T03:06:31.456Z,21.82
2018-09-06T03:07:31.792Z,21.81
2018-09-06T03:08:31.480Z,21.78
2018-09-06T03:09:31.509Z,21.8
2018-09-06T03:10:31.455Z,21.8
2018-09-06T03:11:31.201Z,21.81
2018-09-06T03:12:31.483Z,21.82
2018-09-06T03:13:31.315Z,21.8
2018-09-06T03:14:31.631Z,21.78
2018-09-06T03:15:32.023Z,21.78
2018-09-06T03:16:31.442Z,21.8
2018-09-06T03:17:31.261Z,21.81
2018-09-06T03:18:31.388Z,21.81
2018-09-06T03:19:31.183Z,21.8
2018-09-06T03:20:31.623Z,21.81
2018-09-06T03:21:31.326Z,21.8
2018-09-06T03:22:31.377Z,21.78
2018-09-06T03:23:31.405Z,21.82
2018-09-06T03:24:31.411Z,21.81
2018-09-06T03:25:31.343Z,21.81
2018-09-06T03:26:31.468Z,21.81
2018-09-06T03:27:31.185Z,21.8
2018-09-06T03:28:31.452Z,21.8
2018-09-06T03:29:31.325Z,21.81
2018-09-06T03:30:31.803Z,21.81
2018-09-06T03:31:31.266Z,21.8
2018-09-06T03:32:31.400Z,21.78
2018-09-06T03:33:31.267Z,21.81
2018-09-06T03:34:31.478Z,21.8
2018-09-06T03:35:31.580Z,21.81
2018-09-06T03:36:31.453Z,21.78
2018-09-06T03:37:31.815Z,21.8
2018-09-06T03:38:31.522Z,21.8
2018-09-06T03:39:31.378Z,21.78
2018-09-06T03:40:31.216Z,21.8
2018-09-06T03:41:31.356Z,21.81
2018-09-06T03:42:31.455Z,21.78
2018-09-06T03:43:31.317Z,21.81
2018-09-06T03:44:31.464Z,21.8
2018-09-06T03:45:31.355Z,21.77
2018-09-06T03:46:31.484Z,21.78
2018-09-06T03:47:31.500Z,21.8
2018-09-06T03:48:31.497Z,21.78
2018-09-06T03:49:31.405Z,21.81
2018-09-06T03:50:32.056Z,21.81
2018-09-06T03:51:31.450Z,21.8
2018-09-06T03:52:31.553Z,21.8
2018-09-06T03:53:31.251Z,21.78
2018-09-06T03:54:31.584Z,21.8
2018-09-06T03:55:31.321Z,21.78
2018-09-06T03:56:31.248Z,21.8
2018-09-06T03:57:31.756Z,21.8
2018-09-06T03:58:31.624Z,21.78
2018-09-06T03:59:31.271Z,21.77
2018-09-06T04:00:31.604Z,21.77
2018-09-06T04:01:31.332Z,21.78
2018-09-06T04:02:31.503Z,21.77
2018-09-06T04:03:31.351Z,21.77
2018-09-06T04:04:31.279Z,21.78
2018-09-06T04:05:31.275Z,21.8
2018-09-06T04:06:31.409Z,21.77
2018-09-06T04:07:31.419Z,21.78
2018-09-06T04:08:31.366Z,21.77
2018-09-06T04:09:31.269Z,21.78
2018-09-06T04:10:31.353Z,21.77
2018-09-06T04:11:31.232Z,21.76
2018-09-06T04:12:31.277Z,21.77
2018-09-06T04:13:31.220Z,21.8
2018-09-06T04:14:31.353Z,21.77
2018-09-06T04:15:31.194Z,21.78
2018-09-06T04:16:31.589Z,21.78
2018-09-06T04:17:31.223Z,21.8
2018-09-06T04:18:32.125Z,21.77
2018-09-06T04:19:31.238Z,21.8
2018-09-06T04:20:31.424Z,21.78
2018-09-06T04:21:31.173Z,21.8
2018-09-06T04:22:31.843Z,21.77
2018-09-06T04:23:31.206Z,21.77
2018-09-06T04:24:31.472Z,21.78
2018-09-06T04:25:31.356Z,21.77
2018-09-06T04:26:31.331Z,21.76
2018-09-06T04:27:31.439Z,21.76
2018-09-06T04:28:31.737Z,21.78
2018-09-06T04:29:31.401Z,21.76
2018-09-06T04:30:31.383Z,21.78
2018-09-06T04:31:31.339Z,21.76
2018-09-06T04:32:31.478Z,21.78
2018-09-06T04:33:31.414Z,21.74
2018-09-06T04:34:31.604Z,21.77
2018-09-06T04:35:31.867Z,21.78
2018-09-06T04:36:31.347Z,21.76
2018-09-06T04:37:31.351Z,21.77
2018-09-06T04:38:31.389Z,21.76
2018-09-06T04:39:31.165Z,21.77
2018-09-06T04:40:31.342Z,21.77
2018-09-06T04:41:31.371Z,21.77
2018-09-06T04:42:31.464Z,21.76
2018-09-06T04:43:31.142Z,21.76
2018-09-06T04:44:31.477Z,21.77
2018-09-06T04:45:31.313Z,21.78
2018-09-06T04:46:31.600Z,21.76
2018-09-06T04:47:31.199Z,21.78
2018-09-06T04:48:31.307Z,21.76
2018-09-06T04:49:31.251Z,21.77
2018-09-06T04:50:31.617Z,21.76
2018-09-06T04:51:31.532Z,21.76
2018-09-06T04:52:31.436Z,21.78
2018-09-06T04:53:31.250Z,21.77
2018-09-06T04:54:31.183Z,21.76
2018-09-06T04:55:31.360Z,21.77
2018-09-06T04:56:31.492Z,21.73
2018-09-06T04:57:31.504Z,21.74
2018-09-06T04:58:32.004Z,21.77
2018-09-06T04:59:31.146Z,21.77
2018-09-06T05:00:31.482Z,21.77
2018-09-06T05:01:31.447Z,21.76
2018-09-06T05:02:31.244Z,21.77
2018-09-06T05:03:31.544Z,21.76
2018-09-06T05:04:31.387Z,21.76
2018-09-06T05:05:31.593Z,21.77
2018-09-06T05:06:31.283Z,21.76
2018-09-06T05:07:31.227Z,21.77
2018-09-06T05:08:31.472Z,21.77
2018-09-06T05:09:31.251Z,21.77
2018-09-06T05:10:31.442Z,21.74
2018-09-06T05:11:31.185Z,21.77
2018-09-06T05:12:31.357Z,21.77
2018-09-06T05:13:31.233Z,21.78
2018-09-06T05:14:31.531Z,21.77
2018-09-06T05:15:31.197Z,21.76
2018-09-06T05:16:31.308Z,21.78
2018-09-06T05:17:31.483Z,21.77
2018-09-06T05:18:31.507Z,21.78
2018-09-06T05:19:31.229Z,21.78
2018-09-06T05:20:31.551Z,21.78
2018-09-06T05:21:31.223Z,21.78
2018-09-06T05:22:31.326Z,21.77
2018-09-06T05:23:31.485Z,21.74
2018-09-06T05:24:31.443Z,21.77
2018-09-06T05:25:31.264Z,21.76
2018-09-06T05:26:31.474Z,21.78
2018-09-06T05:27:31.237Z,21.78
2018-09-06T05:28:31.419Z,21.77
2018-09-06T05:29:31.252Z,21.77
2018-09-06T05:30:31.362Z,21.78
2018-09-06T05:31:31.276Z,21.78
2018-09-06T05:32:31.979Z,21.77
2018-09-06T05:33:31.465Z,21.77
2018-09-06T05:34:31.328Z,21.78
2018-09-06T05:35:31.205Z,21.76
2018-09-06T05:36:32.510Z,21.77
2018-09-06T05:37:31.126Z,21.73
2018-09-06T05:38:31.318Z,21.76
2018-09-06T05:39:31.428Z,21.77
2018-09-06T05:40:31.498Z,21.78
2018-09-06T05:41:31.333Z,21.76
2018-09-06T05:42:31.646Z,21.76
2018-09-06T05:43:31.519Z,21.77
2018-09-06T05:44:31.276Z,21.76
2018-09-06T05:45:31.232Z,21.77
2018-09-06T05:46:31.468Z,21.78
2018-09-06T05:47:32.116Z,21.77
2018-09-06T05:48:31.751Z,21.77
2018-09-06T05:49:31.416Z,21.77
2018-09-06T05:50:31.430Z,21.76
2018-09-06T05:51:31.268Z,21.77
2018-09-06T05:52:31.149Z,21.77
2018-09-06T05:53:31.862Z,21.77
2018-09-06T05:54:31.450Z,21.78
2018-09-06T05:55:31.253Z,21.77
2018-09-06T05:56:31.475Z,21.77
2018-09-06T05:57:31.212Z,21.78
2018-09-06T05:58:31.346Z,21.77
2018-09-06T05:59:32.210Z,21.78
2018-09-06T06:00:31.394Z,21.76
2018-09-06T06:01:31.204Z,21.78
2018-09-06T06:02:31.572Z,21.8
2018-09-06T06:03:31.276Z,21.78
2018-09-06T06:04:31.459Z,21.77
2018-09-06T06:05:31.297Z,21.77
2018-09-06T06:06:31.487Z,21.78
2018-09-06T06:07:31.356Z,21.77
2018-09-06T06:08:31.409Z,21.77
2018-09-06T06:09:31.471Z,21.76
2018-09-06T06:10:31.252Z,21.78
2018-09-06T06:11:31.284Z,21.78
2018-09-06T06:12:31.702Z,21.78
2018-09-06T06:13:31.552Z,21.77
2018-09-06T06:14:31.401Z,21.78
2018-09-06T06:15:31.471Z,21.77
2018-09-06T06:16:31.422Z,21.77
2018-09-06T06:17:31.282Z,21.77
2018-09-06T06:18:31.359Z,21.78
2018-09-06T06:19:31.482Z,21.78
2018-09-06T06:20:31.139Z,21.78
2018-09-06T06:21:31.430Z,21.8
2018-09-06T06:22:31.388Z,21.76
2018-09-06T06:23:31.520Z,21.81
2018-09-06T06:24:31.344Z,21.8
2018-09-06T06:25:31.365Z,21.8
2018-09-06T06:26:31.386Z,21.78
2018-09-06T06:27:31.255Z,21.78
2018-09-06T06:28:31.332Z,21.78
2018-09-06T06:29:31.305Z,21.78
2018-09-06T06:30:31.184Z,21.77
2018-09-06T06:31:31.289Z,21.8
2018-09-06T06:32:31.343Z,21.78
2018-09-06T06:33:31.334Z,21.76
2018-09-06T06:34:31.452Z,21.81
2018-09-06T06:35:31.626Z,21.78
2018-09-06T06:36:31.416Z,21.77
2018-09-06T06:37:31.158Z,21.8
2018-09-06T06:38:31.246Z,21.78
2018-09-06T06:39:31.283Z,21.77
2018-09-06T06:40:31.736Z,21.78
2018-09-06T06:41:31.412Z,21.8
2018-09-06T06:42:31.319Z,21.81
2018-09-06T06:43:31.207Z,21.77
2018-09-06T06:44:31.391Z,21.78
2018-09-06T06:45:31.377Z,21.78
2018-09-06T06:46:31.349Z,21.78
2018-09-06T06:47:31.445Z,21.8
2018-09-06T06:48:31.330Z,21.77
2018-09-06T06:49:31.312Z,21.77
2018-09-06T06:50:32.320Z,21.81
2018-09-06T06:51:31.380Z,21.8
2018-09-06T06:52:31.428Z,21.77
2018-09-06T06:53:31.461Z,21.8
2018-09-06T06:54:31.427Z,21.76
2018-09-06T06:55:32.074Z,21.8
2018-09-06T06:56:31.581Z,21.77
2018-09-06T06:57:31.291Z,21.77
2018-09-06T06:58:31.581Z,21.8
2018-09-06T06:59:31.244Z,21.77
2018-09-06T07:00:31.360Z,21.76
2018-09-06T07:01:31.408Z,21.77
2018-09-06T07:02:31.377Z,21.78
2018-09-06T07:03:31.727Z,21.76
2018-09-06T07:04:31.740Z,21.77
2018-09-06T07:05:31.343Z,21.78
2018-09-06T07:06:31.269Z,21.8
2018-09-06T07:07:31.640Z,21.8
2018-09-06T07:08:31.666Z,21.8
2018-09-06T07:09:31.337Z,21.78
2018-09-06T07:10:31.348Z,21.8
2018-09-06T07:11:31.611Z,21.8
2018-09-06T07:12:31.144Z,21.78
2018-09-06T07:13:31.226Z,21.78
2018-09-06T07:14:31.280Z,21.8
2018-09-06T07:15:31.544Z,21.77
2018-09-06T07:16:31.367Z,21.78
2018-09-06T07:17:31.297Z,21.78
2018-09-06T07:18:32.201Z,21.78
2018-09-06T07:19:31.679Z,21.77
2018-09-06T07:20:31.287Z,21.77
2018-09-06T07:21:31.354Z,21.78
2018-09-06T07:22:31.671Z,21.78
2018-09-06T07:23:31.368Z,21.78
2018-09-06T07:24:31.220Z,21.76
2018-09-06T07:25:31.450Z,21.78
2018-09-06T07:26:31.863Z,21.77
2018-09-06T07:27:31.246Z,21.8
2018-09-06T07:28:31.332Z,21.78
2018-09-06T07:29:31.304Z,21.77
2018-09-06T07:30:31.865Z,21.77
2018-09-06T07:31:31.655Z,21.78
2018-09-06T07:32:31.466Z,21.8
2018-09-06T07:33:31.533Z,21.78
2018-09-06T07:34:31.371Z,21.78
2018-09-06T07:35:31.457Z,21.77
2018-09-06T07:36:31.556Z,21.78
2018-09-06T07:37:31.379Z,21.78
2018-09-06T07:38:31.197Z,21.77
2018-09-06T07:39:31.293Z,21.8
2018-09-06T07:40:31.372Z,21.81
2018-09-06T07:41:32.405Z,21.77
2018-09-06T07:42:31.182Z,21.77
2018-09-06T07:43:31.150Z,21.77
2018-09-06T07:44:31.246Z,21.78
2018-09-06T07:45:31.410Z,21.78
2018-09-06T07:46:31.641Z,21.77
2018-09-06T07:47:31.421Z,21.78
2018-09-06T07:48:31.214Z,21.78
2018-09-06T07:49:31.454Z,21.81
2018-09-06T07:50:31.270Z,21.77
2018-09-06T07:51:32.522Z,21.78
2018-09-06T07:52:31.336Z,21.78
2018-09-06T07:53:31.473Z,21.77
2018-09-06T07:54:31.238Z,21.77
2018-09-06T07:55:31.369Z,21.78
2018-09-06T07:56:31.340Z,21.78
2018-09-06T07:57:31.595Z,21.77
2018-09-06T07:58:31.306Z,21.77
2018-09-06T07:59:31.316Z,21.77
2018-09-06T08:00:31.326Z,21.77
2018-09-06T08:01:31.732Z,21.78
2018-09-06T08:02:31.382Z,21.78
2018-09-06T08:03:31.441Z,21.8
2018-09-06T08:04:31.405Z,21.77
2018-09-06T08:05:31.910Z,21.78
2018-09-06T08:06:31.216Z,21.76
2018-09-06T08:07:31.304Z,21.8
2018-09-06T08:08:31.484Z,21.8
2018-09-06T08:09:31.329Z,21.78
2018-09-06T08:10:31.310Z,21.78
2018-09-06T08:11:31.541Z,21.77
2018-09-06T08:12:31.212Z,21.77
2018-09-06T08:13:31.337Z,21.78
2018-09-06T08:14:31.354Z,21.77
2018-09-06T08:15:31.798Z,21.77
2018-09-06T08:16:31.404Z,21.76
2018-09-06T08:17:31.328Z,21.76
2018-09-06T08:18:31.300Z,21.78
2018-09-06T08:19:31.170Z,21.78
2018-09-06T08:20:31.574Z,21.77
2018-09-06T08:21:31.432Z,21.77
2018-09-06T08:22:31.472Z,21.77
2018-09-06T08:23:31.389Z,21.77
2018-09-06T08:24:31.563Z,21.78
2018-09-06T08:25:31.206Z,21.78
2018-09-06T08:26:31.591Z,21.78
2018-09-06T08:27:31.393Z,21.78
2018-09-06T08:28:31.557Z,21.77
2018-09-06T08:29:31.274Z,21.78
2018-09-06T08:30:31.961Z,21.76
2018-09-06T08:31:31.646Z,21.76
2018-09-06T08:32:31.315Z,21.77
2018-09-06T08:33:31.387Z,21.8
2018-09-06T08:34:31.230Z,21.78
2018-09-06T08:35:31.453Z,21.77
2018-09-06T08:36:31.367Z,21.77
2018-09-06T08:37:31.294Z,21.78
2018-09-06T08:38:31.399Z,21.78
2018-09-06T08:39:31.313Z,21.77
2018-09-06T08:40:31.245Z,21.77
2018-09-06T08:41:31.634Z,21.77
2018-09-06T08:42:31.647Z,21.8
2018-09-06T08:43:31.305Z,21.78
2018-09-06T08:44:31.298Z,21.78
2018-09-06T08:45:32.252Z,21.8
2018-09-06T08:46:31.523Z,21.78
2018-09-06T08:47:31.835Z,21.78
2018-09-06T08:48:31.391Z,21.77
2018-09-06T08:49:31.617Z,21.8
2018-09-06T08:50:31.273Z,21.77
2018-09-06T08:51:31.426Z,21.76
2018-09-06T08:52:32.210Z,21.77
2018-09-06T08:53:31.347Z,21.77
2018-09-06T08:54:31.304Z,21.77
2018-09-06T08:55:31.378Z,21.78
2018-09-06T08:56:31.360Z,21.78
2018-09-06T08:57:31.232Z,21.78
2018-09-06T08:58:31.923Z,21.78
2018-09-06T08:59:31.313Z,21.78
2018-09-06T09:00:31.452Z,21.8
2018-09-06T09:01:31.274Z,21.8
2018-09-06T09:02:32.077Z,21.78
2018-09-06T09:03:31.306Z,21.77
2018-09-06T09:04:31.715Z,21.78
2018-09-06T09:05:31.362Z,21.78
2018-09-06T09:06:31.291Z,21.78
2018-09-06T09:07:31.853Z,21.8
2018-09-06T09:08:32.138Z,21.78
2018-09-06T09:09:31.351Z,21.81
2018-09-06T09:10:31.265Z,21.8
2018-09-06T09:11:31.324Z,21.77
2018-09-06T09:12:32.163Z,21.76
2018-09-06T09:13:31.648Z,21.78
2018-09-06T09:14:31.293Z,21.78
2018-09-06T09:15:31.818Z,21.77
2018-09-06T09:16:31.240Z,21.8
2018-09-06T09:17:31.491Z,21.78
2018-09-06T09:18:31.492Z,21.78
2018-09-06T09:19:31.210Z,21.77
2018-09-06T09:20:31.258Z,21.78
2018-09-06T09:21:31.976Z,21.77
2018-09-06T09:22:31.364Z,21.78
2018-09-06T09:23:31.487Z,21.78
2018-09-06T09:24:31.176Z,21.78
2018-09-06T09:25:31.878Z,21.77
2018-09-06T09:26:31.469Z,21.8
2018-09-06T09:27:31.246Z,21.78
2018-09-06T09:28:31.562Z,21.8
2018-09-06T09:29:31.257Z,21.77
2018-09-06T09:30:31.649Z,21.78
2018-09-06T09:31:31.318Z,21.81
2018-09-06T09:32:31.431Z,21.81
2018-09-06T09:33:31.201Z,21.77
2018-09-06T09:34:31.229Z,21.77
2018-09-06T09:35:31.422Z,21.8
2018-09-06T09:36:31.469Z,21.81
2018-09-06T09:37:31.197Z,21.81
2018-09-06T09:38:31.355Z,21.77
2018-09-06T09:39:31.236Z,21.8
2018-09-06T09:40:31.502Z,21.78
2018-09-06T09:41:31.239Z,21.78
2018-09-06T09:42:31.411Z,21.8
2018-09-06T09:43:31.518Z,21.78
2018-09-06T09:44:31.407Z,21.8
2018-09-06T09:45:31.333Z,21.78
2018-09-06T09:48:31.363Z,21.8
2018-09-06T09:49:31.778Z,21.8
2018-09-06T09:51:31.401Z,21.78
2018-09-06T09:52:31.804Z,21.8
2018-09-06T09:53:31.633Z,21.78
2018-09-06T09:54:31.214Z,21.77
2018-09-06T09:55:31.387Z,21.78
2018-09-06T09:56:31.331Z,21.8
2018-09-06T09:57:31.214Z,21.81
2018-09-06T09:58:31.437Z,21.78
2018-09-06T09:59:31.231Z,21.8
2018-09-06T10:00:31.275Z,21.77
2018-09-06T10:01:31.177Z,21.8
2018-09-06T10:02:31.465Z,21.8
2018-09-06T10:03:31.283Z,21.78
2018-09-06T10:04:31.379Z,21.8
2018-09-06T10:05:31.325Z,21.78
2018-09-06T10:06:32.057Z,21.78
2018-09-06T10:07:31.604Z,21.81
2018-09-06T10:08:31.329Z,21.81
2018-09-06T10:09:31.488Z,21.8
2018-09-06T10:10:31.159Z,21.8
2018-09-06T10:11:31.546Z,21.77
2018-09-06T10:12:31.108Z,21.77
2018-09-06T10:13:31.181Z,21.8
2018-09-06T10:14:31.381Z,21.8
2018-09-06T10:15:31.323Z,21.78
2018-09-06T10:16:31.287Z,21.78
2018-09-06T10:17:31.571Z,21.78
2018-09-06T10:18:31.283Z,21.77
2018-09-06T10:19:31.287Z,21.77
2018-09-06T10:20:31.391Z,21.8
2018-09-06T10:21:31.255Z,21.8
2018-09-06T10:22:31.386Z,21.8
2018-09-06T10:23:31.393Z,21.77
2018-09-06T10:24:31.461Z,21.77
2018-09-06T10:25:31.402Z,21.78
2018-09-06T10:26:31.365Z,21.8
2018-09-06T10:27:31.185Z,21.8
2018-09-06T10:28:31.364Z,21.78
2018-09-06T10:29:31.205Z,21.8
2018-09-06T10:30:31.319Z,21.78
2018-09-06T10:31:31.327Z,21.8
2018-09-06T10:32:31.133Z,21.81
2018-09-06T10:33:31.328Z,21.78
2018-09-06T10:34:31.205Z,21.8
2018-09-06T10:35:31.897Z,21.77
2018-09-06T10:36:31.414Z,21.8
2018-09-06T10:37:31.583Z,21.78
2018-09-06T10:38:31.201Z,21.81
2018-09-06T10:39:31.397Z,21.78
2018-09-06T10:40:31.838Z,21.78
2018-09-06T10:41:31.447Z,21.8
2018-09-06T10:42:31.123Z,21.78
2018-09-06T10:43:31.164Z,21.78
2018-09-06T10:44:31.582Z,21.78
2018-09-06T10:45:31.220Z,21.77
2018-09-06T10:46:31.261Z,21.78
2018-09-06T10:47:31.281Z,21.76
2018-09-06T10:48:31.546Z,21.78
2018-09-06T10:49:31.334Z,21.8
2018-09-06T10:50:31.351Z,21.78
2018-09-06T10:51:31.479Z,21.8
2018-09-06T10:52:31.205Z,21.78
2018-09-06T10:53:31.310Z,21.8
2018-09-06T10:54:31.409Z,21.8
2018-09-06T10:55:31.275Z,21.78
2018-09-06T10:56:31.408Z,21.78
2018-09-06T10:57:31.286Z,21.81
2018-09-06T10:58:31.207Z,21.77
2018-09-06T10:59:31.309Z,21.8
2018-09-06T11:00:31.728Z,21.78
2018-09-06T11:01:31.547Z,21.78
2018-09-06T11:02:31.365Z,21.81
2018-09-06T11:03:31.377Z,21.77
2018-09-06T11:04:32.168Z,21.78
2018-09-06T11:05:31.237Z,21.81
2018-09-06T11:06:31.359Z,21.78
2018-09-06T11:07:31.396Z,21.8
2018-09-06T11:08:31.329Z,21.77
2018-09-06T11:09:31.116Z,21.78
2018-09-06T11:10:31.884Z,21.78
2018-09-06T11:11:31.296Z,21.8
2018-09-06T11:12:31.301Z,21.8
2018-09-06T11:13:31.409Z,21.77
2018-09-06T11:14:31.369Z,21.81
2018-09-06T11:15:31.330Z,21.81
2018-09-06T11:16:31.276Z,21.8
2018-09-06T11:17:31.344Z,21.78
2018-09-06T11:18:31.571Z,21.78
2018-09-06T11:19:31.477Z,21.82
2018-09-06T11:20:31.573Z,21.78
2018-09-06T11:21:32.163Z,21.8
2018-09-06T11:22:34.408Z,21.81
2018-09-06T11:23:31.617Z,21.8
2018-09-06T11:24:31.398Z,21.78
2018-09-06T11:25:31.286Z,21.81
2018-09-06T11:26:31.230Z,21.77
2018-09-06T11:27:31.916Z,21.78
2018-09-06T11:28:31.644Z,21.78
2018-09-06T11:29:31.346Z,21.8
2018-09-06T11:30:31.179Z,21.8
2018-09-06T11:31:31.369Z,21.8
2018-09-06T11:32:31.169Z,21.8
2018-09-06T11:33:31.275Z,21.78
2018-09-06T11:34:31.491Z,21.8
2018-09-06T11:35:31.338Z,21.8
2018-09-06T11:36:31.458Z,21.8
2018-09-06T11:37:31.377Z,21.8
2018-09-06T11:38:31.367Z,21.8
2018-09-06T11:39:31.241Z,21.81
2018-09-06T11:40:32.441Z,21.78
2018-09-06T11:41:31.485Z,21.81
2018-09-06T11:42:31.136Z,21.8
2018-09-06T11:43:31.797Z,21.81
2018-09-06T11:44:31.351Z,21.81
2018-09-06T11:45:31.218Z,21.8
2018-09-06T11:46:31.328Z,21.81
2018-09-06T11:47:31.580Z,21.81
2018-09-06T11:48:31.418Z,21.81
2018-09-06T11:49:31.387Z,21.8
2018-09-06T11:50:31.304Z,21.81
2018-09-06T11:51:31.274Z,21.8
2018-09-06T11:52:31.336Z,21.81
2018-09-06T11:53:31.146Z,21.81
2018-09-06T11:54:31.323Z,21.8
2018-09-06T11:55:31.415Z,21.8
2018-09-06T11:56:31.400Z,21.81
2018-09-06T11:57:31.353Z,21.81
2018-09-06T11:58:31.280Z,21.8
2018-09-06T11:59:31.176Z,21.78
2018-09-06T12:00:31.176Z,21.81
2018-09-06T12:01:31.244Z,21.81
2018-09-06T12:02:31.382Z,21.81
2018-09-06T12:03:31.524Z,21.81
2018-09-06T12:04:34.214Z,21.8
2018-09-06T12:05:31.360Z,21.81
2018-09-06T12:06:31.338Z,21.81
2018-09-06T12:07:31.462Z,21.8
2018-09-06T12:08:31.182Z,21.81
2018-09-06T12:09:31.161Z,21.8
2018-09-06T12:10:31.191Z,21.81
2018-09-06T12:11:31.248Z,21.81
2018-09-06T12:12:31.412Z,21.8
2018-09-06T12:13:31.185Z,21.81
2018-09-06T12:14:31.232Z,21.81
2018-09-06T12:15:31.184Z,21.81
2018-09-06T12:16:31.254Z,21.81
2018-09-06T12:17:31.294Z,21.81
2018-09-06T12:18:31.363Z,21.81
2018-09-06T12:19:31.868Z,21.78
2018-09-06T12:20:31.417Z,21.8
2018-09-06T12:21:31.184Z,21.81
2018-09-06T12:22:31.258Z,21.8
2018-09-06T12:23:31.327Z,21.82
2018-09-06T12:24:31.475Z,21.8
2018-09-06T12:25:31.782Z,21.81
2018-09-06T12:26:31.432Z,21.8
2018-09-06T12:27:31.400Z,21.78
2018-09-06T12:28:31.405Z,21.78
2018-09-06T12:29:31.186Z,21.78
2018-09-06T12:30:31.294Z,21.81
2018-09-06T12:31:31.154Z,21.78
2018-09-06T12:32:31.794Z,21.81
2018-09-06T12:33:31.826Z,21.78
2018-09-06T12:34:31.428Z,21.78
2018-09-06T12:35:31.271Z,21.78
2018-09-06T12:36:31.387Z,21.8
2018-09-06T12:37:31.219Z,21.8
2018-09-06T12:38:31.428Z,21.78
2018-09-06T12:39:31.635Z,21.81
2018-09-06T12:40:31.190Z,21.82
2018-09-06T12:41:31.308Z,21.81
2018-09-06T12:42:31.213Z,21.87
2018-09-06T12:43:31.490Z,21.84
2018-09-06T12:44:31.329Z,21.88
2018-09-06T12:45:31.236Z,21.87
2018-09-06T12:46:31.203Z,21.87
2018-09-06T12:47:31.347Z,21.88
2018-09-06T12:48:31.146Z,21.89
2018-09-06T12:49:31.675Z,21.91
2018-09-06T12:50:31.418Z,21.89
2018-09-06T12:51:31.458Z,21.89
2018-09-06T12:52:31.380Z,21.91
2018-09-06T12:53:31.422Z,21.91
2018-09-06T12:54:31.385Z,21.94
2018-09-06T12:55:31.378Z,21.96
2018-09-06T12:56:31.508Z,21.95
2018-09-06T12:57:31.151Z,21.92
2018-09-06T12:58:31.330Z,21.95
2018-09-06T12:59:31.153Z,21.96
2018-09-06T13:00:32.553Z,21.95